Startpagina
METAR-TAF:

METAR-TAF

Vliegvelden :

Pohnpei, Micronesië

breedte: 06-59N, lengte: 158-12E, hoogte: 2 m

Actueel weer

Dit bericht is 9 uur en het 15 minuten geleden gemaakt, om 05:55 UTC
Wind 5 kt uit het oostnoordoosten
Temperatuur 30°C
Vochtigheid 79%
Druk 1006 hPa
Zicht: 24.1 km
Verspreide wolken op 1800 ft
Gebroken wolken op 13000 ft
Geheel bewolkt op 30000 ft

METAR: PTPN 140555Z 06005KT 15SM SCT018 BKN130 OVC300 30/26 A2970 RMK LAST

Tijdstip: 02:10 (15:10 UTC)

Verwachting

Dit bericht is 9 uur en het 37 minuten geleden gemaakt, om 05:33 UTC
Verwachting geldig van 14 om 06 UTC tot 15 om 06 UTC
Wind 6 kt uit variabele richting
Zicht: 10 km
Verspreide wolken op 1800 ft
Gebroken wolken op 13000 ft
buien in de omgeving

TAF: PTPN 140533Z 1406/1506 VRB06KT P6SM VCSH SCT018 BKN130

Waarnemingen en weersverwachtingen van meer dan 4000 vliegvelden (METAR en TAF).

De beschikbare stations zijn de gele en rode punten op de kaart.

Ga met uw muis naar het station om de naam te zien.

Klik dan om waarnemingen en weersverwachtingen te zien.

kaart wijzigen: klik op de groene knoppen met een zwart kruis om in te zoomen, op de groene knop met een streepje om uit te zoomen of op de groene pijlen voor aangrenzende kaarten.


METAR-TAF: